Time;durP1;ratioP1;P1;durP2;ratioP2;P2;SDS_P1;SDS_P2;PMS_P1;PMS_P2;Temp;Humidity;BMP_temperature;BMP_pressure;BME280_temperature;BME280_humidity;BME280_pressure;Samples;Min_cycle;Max_cycle;Signal;HPM_P1;HPM_P2
2022/05/13 00:01:12;;;;;;;6.70;6.00;;;;;;;19.49;44.70;99762.25;5051525;28;20025;-86
2022/05/13 00:03:38;;;;;;;6.45;5.75;;;;;;;19.48;44.56;99756.06;5051865;28;20083;-87
2022/05/13 00:06:04;;;;;;;9.68;6.28;;;;;;;19.14;44.86;99717.44;5033977;28;20052;-87
2022/05/13 00:08:31;;;;;;;7.38;5.53;;;;;;;19.15;44.99;99731.66;5051693;28;20025;-86
2022/05/13 00:10:57;;;;;;;7.53;5.60;;;;;;;19.15;45.06;99748.53;5033860;28;20025;-86
2022/05/13 00:13:23;;;;;;;8.40;6.45;;;;;;;19.46;45.11;99817.06;5051699;28;20013;-86
2022/05/13 00:15:49;;;;;;;6.15;5.55;;;;;;;18.95;45.31;99732.75;5051654;28;20021;-86
2022/05/13 00:18:16;;;;;;;7.43;6.10;;;;;;;18.91;45.31;99720.88;5051556;28;20028;-86
2022/05/13 00:20:42;;;;;;;6.80;6.10;;;;;;;19.26;45.22;99803.13;5051677;28;20024;-86
2022/05/13 00:23:07;;;;;;;7.15;6.00;;;;;;;19.34;45.57;99800.16;5051886;28;20039;-86
2022/05/13 00:25:36;;;;;;;6.70;5.95;;;;;;;19.15;45.70;99796.69;5033456;28;20513;-86
2022/05/13 00:28:03;;;;;;;7.53;6.05;;;;;;;18.66;45.86;99723.69;5051285;28;20017;-86
2022/05/13 00:30:32;;;;;;;9.10;6.53;;;;;;;18.71;45.94;99752.44;5033311;28;20024;-86
2022/05/13 00:32:58;;;;;;;6.40;5.80;;;;;;;18.79;46.17;99740.59;5051276;28;20086;-86
2022/05/13 00:35:24;;;;;;;6.78;6.07;;;;;;;18.36;46.19;99672.81;5051312;28;20052;-86
2022/05/13 00:37:50;;;;;;;8.18;6.15;;;;;;;18.65;46.09;99710.56;5051314;28;20383;-86
2022/05/13 00:40:17;;;;;;;7.82;6.10;;;;;;;19.64;46.29;99859.88;5033086;28;20052;-86
2022/05/13 00:42:43;;;;;;;6.63;5.60;;;;;;;19.05;46.32;99764.31;5051328;28;20025;-88
2022/05/13 00:45:13;;;;;;;8.80;6.07;;;;;;;18.63;46.69;99726.81;5033393;28;20404;-88
2022/05/13 00:47:39;;;;;;;7.55;6.32;;;;;;;19.15;46.86;99828.81;5051365;28;20025;-88
2022/05/13 00:50:05;;;;;;;9.85;6.00;;;;;;;18.77;46.90;99737.34;5051281;28;20028;-88
2022/05/13 00:52:31;;;;;;;9.15;6.72;;;;;;;18.61;46.92;99734.25;5051200;28;20099;-88
2022/05/13 00:55:03;;;;;;;7.20;6.22;;;;;;;18.45;47.34;99704.59;5051186;28;20132;-88
2022/05/13 00:57:30;;;;;;;9.65;6.75;;;;;;;18.96;47.56;99805.81;5051057;28;20059;-87
2022/05/13 00:59:57;;;;;;;7.07;6.43;;;;;;;18.45;47.44;99721.44;5032954;28;20477;-87
2022/05/13 01:02:22;;;;;;;7.10;6.40;;;;;;;18.74;47.18;99741.28;5033199;28;20116;-87
2022/05/13 01:04:48;;;;;;;8.27;6.07;;;;;;;19.14;47.31;99800.44;5033388;28;20108;-88
2022/05/13 01:07:18;;;;;;;8.00;6.28;;;;;;;18.45;47.22;99678.66;5033188;28;20095;-87
2022/05/13 01:09:48;;;;;;;7.05;5.90;;;;;;;19.10;47.30;99793.91;5033069;28;20025;-88
2022/05/13 01:12:17;;;;;;;7.65;6.28;;;;;;;18.86;47.46;99755.53;5050832;28;20021;-88
2022/05/13 01:14:52;;;;;;;7.10;5.90;;;;;;;19.43;47.96;99862.25;5032947;28;20021;-88
2022/05/13 01:20:13;;;;;;;7.45;6.13;;;;;;;18.94;47.82;99790.00;5051770;28;20071;-88
2022/05/13 01:22:44;;;;;;;7.22;5.97;;;;;;;19.30;47.96;99852.50;5036917;28;20028;-88
2022/05/13 01:25:16;;;;;;;7.47;5.93;;;;;;;18.82;48.12;99802.50;5054607;28;20025;-87
2022/05/13 01:27:43;;;;;;;7.90;6.13;;;;;;;18.39;48.06;99709.78;5054794;28;20028;-88
2022/05/13 01:30:12;;;;;;;6.78;5.63;;;;;;;19.22;47.95;99839.44;5036907;28;20028;-87
2022/05/13 01:32:37;;;;;;;8.95;5.68;;;;;;;19.23;47.96;99847.25;5054885;28;20499;-88
2022/05/13 01:35:03;;;;;;;8.10;6.00;;;;;;;18.26;47.87;99688.56;5054826;28;20017;-88
2022/05/13 01:37:29;;;;;;;7.78;6.25;;;;;;;18.67;47.96;99781.50;5054529;28;20028;-87
2022/05/13 01:39:54;;;;;;;17.88;6.55;;;;;;;19.20;47.81;99833.50;5036660;28;20426;-88
2022/05/13 01:42:20;;;;;;;8.65;6.68;;;;;;;18.65;47.48;99758.69;5054701;28;20027;-88
2022/05/13 01:44:45;;;;;;;17.15;7.45;;;;;;;19.07;47.77;99814.94;5054294;28;20032;-88
2022/05/13 01:47:10;;;;;;;7.85;7.10;;;;;;;18.39;47.72;99733.03;5054455;28;20032;-87
2022/05/13 01:49:36;;;;;;;7.60;6.88;;;;;;;18.59;47.76;99763.06;5054161;28;20032;-87
2022/05/13 01:52:01;;;;;;;10.02;6.68;;;;;;;17.97;47.91;99689.31;5054222;28;20021;-88
2022/05/13 01:54:27;;;;;;;8.13;6.65;;;;;;;18.36;47.64;99755.69;5036384;28;20414;-88
2022/05/13 01:56:52;;;;;;;10.30;6.22;;;;;;;17.93;47.74;99680.94;5054083;28;20448;-88
2022/05/13 01:59:18;;;;;;;8.82;7.00;;;;;;;17.73;47.71;99643.72;5054005;28;20025;-87
2022/05/13 02:01:44;;;;;;;8.40;6.50;;;;;;;18.70;47.90;99839.06;5053902;28;20490;-87
2022/05/13 02:04:10;;;;;;;8.73;6.88;;;;;;;18.31;47.82;99798.31;5053980;28;20028;-87
2022/05/13 02:06:36;;;;;;;7.07;6.10;;;;;;;18.69;47.81;99853.50;5054090;28;20031;-88
2022/05/13 02:09:01;;;;;;;7.68;5.93;;;;;;;18.18;47.96;99750.34;5054079;28;20103;-88
2022/05/13 02:11:29;;;;;;;8.38;6.45;;;;;;;17.94;47.92;99745.88;5036172;28;20025;-88
2022/05/13 02:13:55;;;;;;;7.45;6.75;;;;;;;18.39;48.26;99814.06;5035838;28;20418;-87
2022/05/13 02:16:21;;;;;;;9.35;6.97;;;;;;;18.45;48.14;99825.72;5035571;28;20017;-87
2022/05/13 02:18:46;;;;;;;9.40;7.20;;;;;;;18.40;48.29;99823.72;5053398;28;20025;-87
2022/05/13 02:21:13;;;;;;;9.10;7.50;;;;;;;17.32;48.35;99640.84;5053381;28;20079;-87
2022/05/13 02:23:38;;;;;;;8.70;7.60;;;;;;;18.17;48.21;99791.47;5035500;28;20028;-88
2022/05/13 02:26:07;;;;;;;10.43;7.40;;;;;;;17.82;48.23;99740.41;5053593;28;20025;-87
2022/05/13 02:28:34;;;;;;;7.40;6.70;;;;;;;17.79;48.41;99749.69;5035710;28;20075;-88
2022/05/13 02:31:00;;;;;;;7.57;6.38;;;;;;;17.60;48.58;99772.00;5053331;28;20501;-88
2022/05/13 02:33:30;;;;;;;9.93;6.53;;;;;;;17.88;48.81;99784.16;5052473;28;20021;-89
2022/05/13 02:35:56;;;;;;;10.93;7.15;;;;;;;17.48;48.87;99726.50;5053381;28;20021;-88
2022/05/13 02:38:21;;;;;;;7.68;5.95;;;;;;;17.32;48.67;99719.03;5035213;28;20440;-88
2022/05/13 02:43:31;;;;;;;8.70;6.28;;;;;;;17.96;49.00;99851.47;5053134;28;20063;-88
2022/05/13 02:45:58;;;;;;;7.63;6.88;;;;;;;17.99;48.87;99835.00;5053402;28;20067;-87
2022/05/13 02:48:24;;;;;;;9.40;7.15;;;;;;;17.41;49.17;99741.75;5053329;28;20067;-87
2022/05/13 02:50:49;;;;;;;7.55;6.85;;;;;;;18.05;49.12;99839.47;5035384;28;20044;-87
2022/05/13 02:53:15;;;;;;;7.90;7.10;;;;;;;17.63;49.33;99778.75;5035466;28;20477;-88
2022/05/13 02:55:41;;;;;;;7.38;6.68;;;;;;;17.13;49.40;99736.03;5053105;28;20040;-88
2022/05/13 02:58:06;;;;;;;9.32;7.03;;;;;;;17.13;49.14;99698.66;5053067;28;20028;-88
2022/05/13 03:00:33;;;;;;;8.48;7.45;;;;;;;17.01;49.21;99687.84;5052890;28;20021;-88
2022/05/13 03:02:59;;;;;;;9.30;7.00;;;;;;;17.43;49.26;99779.72;5035126;28;20029;-88
2022/05/13 03:05:25;;;;;;;7.78;6.97;;;;;;;17.85;49.27;99843.34;5035317;28;20032;-88
2022/05/13 03:07:51;;;;;;;8.82;6.90;;;;;;;17.78;49.75;99846.88;5034869;28;20070;-88
2022/05/13 03:10:17;;;;;;;9.38;7.35;;;;;;;16.29;49.72;99613.59;5034549;28;20025;-88
2022/05/13 03:12:43;;;;;;;8.35;7.50;;;;;;;17.76;49.81;99840.91;5052496;28;20032;-88
2022/05/13 03:15:10;;;;;;;8.63;7.22;;;;;;;16.18;49.64;99607.09;5034864;28;20052;-87
2022/05/13 03:17:36;;;;;;;7.60;6.80;;;;;;;17.76;49.99;99846.25;5034699;28;20027;-88
2022/05/13 03:20:04;;;;;;;14.35;8.50;;;;;;;17.48;50.02;99821.78;5034893;28;20025;-88
2022/05/13 03:22:29;;;;;;;9.15;7.55;;;;;;;17.60;50.25;99817.41;5034718;28;20091;-88
2022/05/13 03:24:55;;;;;;;13.88;7.22;;;;;;;17.40;50.31;99788.19;5034595;28;20025;-87
2022/05/13 03:27:21;;;;;;;7.63;6.93;;;;;;;16.81;49.97;99681.84;5034550;28;20024;-87
2022/05/13 03:29:46;;;;;;;8.55;6.82;;;;;;;17.20;50.11;99768.00;5052224;28;20456;-88
2022/05/13 03:32:12;;;;;;;10.68;7.25;;;;;;;16.75;49.88;99688.84;5052229;28;20417;-87
2022/05/13 03:34:38;;;;;;;8.80;7.65;;;;;;;17.79;50.02;99853.84;5034594;28;20100;-87
2022/05/13 03:37:04;;;;;;;10.80;7.40;;;;;;;17.79;50.12;99866.38;5034479;28;20029;-88
2022/05/13 03:39:30;;;;;;;10.10;7.22;;;;;;;17.11;50.22;99741.56;5052087;28;20076;-87
2022/05/13 03:41:55;;;;;;;8.43;6.88;;;;;;;17.00;50.39;99720.06;5052045;28;20033;-88
2022/05/13 03:44:21;;;;;;;8.80;7.50;;;;;;;17.80;50.40;99865.34;5051643;28;20021;-87
2022/05/13 03:46:46;;;;;;;7.72;6.93;;;;;;;17.78;50.78;99864.75;5051926;28;20505;-86
2022/05/13 03:49:12;;;;;;;9.18;7.93;;;;;;;17.84;50.32;99863.91;5034222;28;20436;-88
2022/05/13 03:51:38;;;;;;;9.95;7.85;;;;;;;16.48;50.62;99682.00;5052124;28;20020;-87
2022/05/13 03:54:04;;;;;;;9.82;7.38;;;;;;;16.47;50.71;99693.69;5034319;28;20025;-88
2022/05/13 03:56:30;;;;;;;8.32;7.57;;;;;;;17.67;50.82;99863.59;5034232;28;20029;-87
2022/05/13 03:58:55;;;;;;;9.02;6.95;;;;;;;16.86;50.77;99770.00;5051949;28;20052;-87
2022/05/13 04:01:21;;;;;;;8.63;7.35;;;;;;;16.08;51.16;99654.69;5051910;28;20095;-87
2022/05/13 04:03:47;;;;;;;11.70;7.35;;;;;;;17.23;50.83;99837.75;5053809;28;20032;-87
2022/05/13 04:08:59;;;;;;;7.22;6.53;;;;;;;16.70;51.03;99733.19;5057874;28;20063;-88
2022/05/13 04:11:40;;;;;;;14.40;8.18;;;;;;;17.68;50.96;99880.44;5039668;28;20045;-87
2022/05/13 04:16:52;;;;;;;12.77;7.25;;;;;;;17.92;50.73;99898.38;5051840;28;20130;-88
2022/05/13 04:19:19;;;;;;;13.65;8.07;;;;;;;17.22;50.41;99787.28;5051635;28;20497;-87
2022/05/13 04:21:46;;;;;;;9.27;7.05;;;;;;;18.08;50.52;99902.34;5051761;28;20028;-87
2022/05/13 04:24:14;;;;;;;9.02;6.88;;;;;;;18.23;50.53;99902.84;5033574;28;20056;-87
2022/05/13 04:26:40;;;;;;;9.15;7.38;;;;;;;17.52;50.42;99766.13;5051826;28;20025;-88
2022/05/13 04:29:06;;;;;;;10.57;7.10;;;;;;;18.08;50.44;99873.78;5033787;28;20032;-88
2022/05/13 04:31:35;;;;;;;12.18;8.20;;;;;;;18.35;50.34;99894.91;5051410;28;20024;-88
2022/05/13 04:34:01;;;;;;;9.80;8.00;;;;;;;17.79;50.43;99826.31;5051482;28;20024;-88
2022/05/13 04:36:27;;;;;;;11.52;7.47;;;;;;;17.84;50.20;99805.13;5033587;28;20027;-88
2022/05/13 04:38:54;;;;;;;8.95;8.10;;;;;;;18.00;50.08;99833.97;5033506;28;20123;-86
2022/05/13 04:44:06;;;;;;;12.52;8.88;;;;;;;17.74;50.09;99788.75;5051312;28;20032;-88
2022/05/13 04:46:32;;;;;;;12.10;8.02;;;;;;;18.53;50.09;99920.88;5051238;28;20028;-88
2022/05/13 04:48:58;;;;;;;17.58;9.35;;;;;;;18.08;50.00;99827.53;5051508;28;20025;-88
2022/05/13 04:51:24;;;;;;;15.55;9.93;;;;;;;18.20;50.18;99838.31;5051408;28;20059;-88
2022/05/13 04:53:52;;;;;;;20.23;9.95;;;;;;;18.82;50.21;99917.53;5033353;28;20405;-88
2022/05/13 04:56:18;;;;;;;14.13;10.15;;;;;;;18.88;50.04;99922.00;5035863;28;20056;-88
2022/05/13 04:58:44;;;;;;;10.88;8.63;;;;;;;17.16;49.96;99644.88;5039188;28;20025;-88
2022/05/13 05:01:10;;;;;;;15.68;8.77;;;;;;;18.15;49.97;99806.91;5041098;28;20025;-87
2022/05/13 05:03:37;;;;;;;11.45;9.15;;;;;;;18.53;49.74;99836.13;5041076;28;20466;-87
2022/05/13 05:06:04;;;;;;;11.60;9.23;;;;;;;18.01;49.65;99739.41;5039387;28;20063;-87
2022/05/13 05:08:30;;;;;;;16.95;9.07;;;;;;;19.16;49.85;99912.63;5037169;28;20027;-87
2022/05/13 05:10:57;;;;;;;11.48;8.45;;;;;;;19.19;49.88;99914.84;5055435;28;20060;-87
2022/05/13 05:13:25;;;;;;;12.43;9.07;;;;;;;19.21;49.86;99929.63;5037086;28;20028;-87
2022/05/13 05:15:51;;;;;;;12.68;8.85;;;;;;;18.63;49.80;99803.56;5054984;28;20070;-87
2022/05/13 05:18:17;;;;;;;18.35;9.80;;;;;;;18.78;49.76;99813.88;5037408;28;20025;-88
2022/05/13 05:20:44;;;;;;;14.82;9.40;;;;;;;19.08;49.66;99851.38;5054745;28;20056;-88
2022/05/13 05:23:18;;;;;;;14.85;9.45;;;;;;;18.66;49.69;99779.88;5036746;28;20045;-87
2022/05/13 05:25:45;;;;;;;16.08;10.13;;;;;;;18.98;49.76;99855.41;5036629;28;20082;-87
2022/05/13 05:28:11;;;;;;;11.15;8.43;;;;;;;19.62;49.16;99912.88;5054499;28;20025;-88
2022/05/13 05:30:37;;;;;;;9.90;7.78;;;;;;;19.01;48.61;99830.84;5054398;28;20509;-88
2022/05/13 05:33:03;;;;;;;9.63;7.40;;;;;;;19.27;48.13;99839.56;5036470;28;20083;-87
2022/05/13 05:35:29;;;;;;;8.75;7.20;;;;;;;19.77;47.78;99933.06;5054616;28;20020;-87
2022/05/13 05:37:55;;;;;;;9.05;7.00;;;;;;;19.00;47.57;99774.88;5054390;28;20489;-87
2022/05/13 05:40:20;;;;;;;10.38;7.03;;;;;;;19.94;47.56;99916.09;5054169;28;20041;-88
2022/05/13 05:42:46;;;;;;;8.38;6.85;;;;;;;19.18;47.57;99792.75;5054392;28;20103;-88
2022/05/13 05:45:13;;;;;;;10.88;8.52;;;;;;;19.70;47.00;99863.50;5054478;28;20469;-88
2022/05/13 05:47:39;;;;;;;11.88;7.30;;;;;;;18.97;47.11;99732.53;5054171;28;20124;-88
2022/05/13 05:50:07;;;;;;;7.18;6.47;;;;;;;20.11;46.52;99910.91;5054149;28;20493;-88
2022/05/13 05:52:33;;;;;;;7.70;6.28;;;;;;;19.59;46.30;99818.78;5054023;28;20580;-87
2022/05/13 05:58:02;;;;;;;8.00;6.85;;;;;;;20.15;46.05;99901.38;5053940;28;20484;-87
2022/05/13 06:00:29;;;;;;;9.27;6.57;;;;;;;19.88;45.95;99842.00;5053430;28;20035;-88
2022/05/13 06:02:55;;;;;;;9.02;6.40;;;;;;;20.35;45.96;99914.44;5036013;28;20104;-87
2022/05/13 06:05:21;;;;;;;7.28;6.07;;;;;;;20.39;45.90;99909.44;5054388;28;20100;-87
2022/05/13 06:07:46;;;;;;;11.23;7.10;;;;;;;20.31;45.84;99895.31;5035729;28;20454;-88
2022/05/13 06:10:13;;;;;;;15.23;11.02;;;;;;;19.78;45.70;99790.03;5054439;28;20048;-87
2022/05/13 06:12:40;;;;;;;8.43;7.07;;;;;;;20.51;45.86;99903.03;5035754;28;20453;-87
2022/05/13 06:15:06;;;;;;;9.25;7.57;;;;;;;19.84;45.79;99800.63;5036170;28;20010;-87
2022/05/13 06:17:32;;;;;;;7.78;6.97;;;;;;;20.46;46.05;99878.78;5054046;28;20029;-86
2022/05/13 06:19:57;;;;;;;8.85;6.53;;;;;;;20.55;45.94;99887.28;5054307;28;20098;-88
2022/05/13 06:22:22;;;;;;;9.43;7.90;;;;;;;20.43;46.33;99867.72;5036123;28;20059;-88
2022/05/13 06:24:48;;;;;;;6.45;5.82;;;;;;;20.35;46.31;99849.25;5053641;28;20017;-87
2022/05/13 06:27:13;;;;;;;7.30;6.63;;;;;;;20.79;46.53;99918.41;5053325;28;20032;-87
2022/05/13 06:29:39;;;;;;;8.25;6.82;;;;;;;20.33;46.52;99827.22;5053363;28;20079;-87
2022/05/13 06:32:05;;;;;;;8.40;7.07;;;;;;;20.93;46.51;99909.06;5053121;28;20021;-86
2022/05/13 06:34:30;;;;;;;8.98;7.82;;;;;;;20.46;45.91;99822.47;5052828;28;20540;-87
2022/05/13 06:36:56;;;;;;;8.10;5.60;;;;;;;20.45;45.96;99793.19;5053140;28;20041;-87
2022/05/13 06:39:21;;;;;;;10.05;8.63;;;;;;;20.89;45.99;99873.03;5035325;28;20084;-87
2022/05/13 06:41:47;;;;;;;8.65;7.43;;;;;;;20.74;46.02;99828.94;5035175;28;20547;-86
2022/05/13 06:44:15;;;;;;;9.13;7.93;;;;;;;20.84;46.09;99821.13;5053365;28;20021;-85
2022/05/13 06:46:41;;;;;;;7.15;5.78;;;;;;;20.77;45.61;99810.50;5035103;28;20020;-85
2022/05/13 06:49:07;;;;;;;8.18;5.50;;;;;;;21.45;45.55;99894.81;5052634;28;20104;-86
2022/05/13 06:51:34;;;;;;;6.50;5.90;;;;;;;21.53;45.40;99895.25;5053048;28;20471;-86
2022/05/13 06:54:03;;;;;;;6.38;5.65;;;;;;;21.67;45.24;99893.09;5052377;28;20490;-86
2022/05/13 06:56:31;;;;;;;5.57;5.07;;;;;;;20.68;44.92;99715.31;5052413;28;20521;-86
2022/05/13 06:58:57;;;;;;;11.70;9.65;;;;;;;20.77;44.82;99721.13;5052894;28;20062;-85
2022/05/13 07:01:23;;;;;;;6.05;5.35;;;;;;;21.35;44.11;99808.66;5052725;28;20021;-87
2022/05/13 07:03:49;;;;;;;6.00;5.15;;;;;;;21.25;44.02;99782.44;5052333;28;20033;-87
2022/05/13 07:06:15;;;;;;;11.48;8.48;;;;;;;21.26;44.01;99773.34;5034543;28;20035;-87
2022/05/13 07:08:41;;;;;;;7.95;6.45;;;;;;;21.67;43.44;99822.41;5052341;28;20025;-88
2022/05/13 07:11:07;;;;;;;7.18;6.22;;;;;;;21.52;43.26;99779.94;5034010;28;20116;-87
2022/05/13 07:13:32;;;;;;;7.20;5.88;;;;;;;21.50;42.99;99768.63;5052381;28;20074;-88
2022/05/13 07:15:58;;;;;;;10.77;7.43;;;;;;;21.42;42.58;99743.00;5052386;28;20020;-86
2022/05/13 07:18:24;;;;;;;8.73;7.43;;;;;;;21.99;42.33;99822.66;5051597;28;20429;-87
2022/05/13 07:20:49;;;;;;;7.20;5.68;;;;;;;22.22;42.37;99841.31;5034359;28;20024;-87
2022/05/13 07:23:15;;;;;;;5.90;5.40;;;;;;;22.45;42.35;99864.53;5052278;28;20017;-87
2022/05/13 07:25:41;;;;;;;8.55;7.07;;;;;;;21.89;42.32;99758.78;5051802;28;20021;-87
2022/05/13 07:28:06;;;;;;;11.98;10.88;;;;;;;22.38;42.22;99827.03;5051956;28;20405;-87
2022/05/13 07:30:32;;;;;;;7.45;5.80;;;;;;;22.07;42.02;99792.69;5034043;28;20021;-87
2022/05/13 07:32:57;;;;;;;7.78;6.95;;;;;;;22.76;41.79;99866.56;5052024;28;20087;-85
2022/05/13 07:35:23;;;;;;;9.65;7.95;;;;;;;22.77;41.71;99862.81;5051926;28;20020;-86
2022/05/13 07:37:48;;;;;;;6.28;5.65;;;;;;;22.93;41.62;99885.38;5051804;28;20028;-85
2022/05/13 07:42:58;;;;;;;15.45;9.18;;;;;;;23.01;40.97;99851.81;5051223;28;20032;-86
2022/05/13 07:45:24;;;;;;;8.02;7.18;;;;;;;22.64;40.59;99777.06;5051099;28;20421;-87
2022/05/13 07:47:50;;;;;;;11.00;10.00;;;;;;;23.21;40.46;99851.25;5051907;28;20029;-87
2022/05/13 07:50:16;;;;;;;8.13;7.32;;;;;;;23.04;40.28;99808.25;5051867;28;20021;-86
2022/05/13 07:52:41;;;;;;;6.78;6.18;;;;;;;22.67;39.85;99754.19;5051787;28;20460;-87
2022/05/13 07:55:10;;;;;;;8.63;6.97;;;;;;;23.14;39.81;99811.88;5051615;28;20019;-86
2022/05/13 07:57:38;;;;;;;7.70;5.55;;;;;;;23.23;39.68;99814.09;5051784;28;20493;-86
2022/05/13 08:02:49;;;;;;;11.90;10.60;;;;;;;23.26;39.56;99797.44;5051542;28;20513;-86
2022/05/13 08:05:14;;;;;;;8.93;6.05;;;;;;;21.98;39.20;99587.13;5051454;28;20021;-87
2022/05/13 08:07:40;;;;;;;8.32;6.28;;;;;;;23.11;39.20;99755.81;5051884;28;20017;-87
2022/05/13 08:10:06;;;;;;;9.52;7.38;;;;;;;23.28;39.22;99765.66;5051958;28;20032;-86
2022/05/13 08:12:31;;;;;;;8.73;7.45;;;;;;;23.84;39.07;99837.09;5040037;28;20036;-87
2022/05/13 08:14:58;;;;;;;6.20;5.22;;;;;;;23.07;38.55;99702.72;5051330;28;20430;-86
2022/05/13 08:17:23;;;;;;;6.75;6.10;;;;;;;23.96;38.27;99818.81;5051819;28;20017;-87
2022/05/13 08:19:49;;;;;;;10.32;5.20;;;;;;;23.45;38.17;99715.13;5033542;28;20413;-87
2022/05/13 08:22:15;;;;;;;12.93;11.15;;;;;;;24.06;38.19;99794.63;5051607;28;20028;-87
2022/05/13 08:24:40;;;;;;;7.18;6.32;;;;;;;24.47;38.18;99832.66;5051290;28;20036;-87
2022/05/13 08:27:06;;;;;;;8.85;7.97;;;;;;;23.96;37.87;99751.41;5050736;28;20035;-87
2022/05/13 08:29:31;;;;;;;9.02;6.72;;;;;;;24.67;37.73;99824.69;5051345;28;20037;-85
2022/05/13 08:31:57;;;;;;;7.10;6.50;;;;;;;24.25;37.29;99737.53;5033472;28;20031;-87
2022/05/13 08:34:22;;;;;;;8.70;6.60;;;;;;;24.34;37.26;99738.69;5050453;28;20027;-87
2022/05/13 08:36:50;;;;;;;10.02;8.13;;;;;;;25.04;37.37;99853.47;5050727;28;20048;-86
2022/05/13 08:39:16;;;;;;;6.38;5.70;;;;;;;25.12;37.07;99841.34;5032600;28;20068;-87
2022/05/13 08:42:04;;;;;;;10.10;7.00;;;;;;;24.34;37.06;99690.91;5033519;28;20079;-86
2022/05/13 08:44:31;;;;;;;6.50;5.78;;;;;;;24.35;36.64;99670.94;5051264;28;20017;-87
2022/05/13 08:47:04;;;;;;;5.22;4.72;;;;;;;25.00;36.53;99745.13;5050701;28;20021;-87
2022/05/13 08:49:35;;;;;;;10.73;7.47;;;;;;;25.51;36.27;99806.56;5033276;28;20052;-87
2022/05/13 08:55:07;;;;;;;6.47;5.50;;;;;;;26.01;35.75;99824.72;5051666;28;20571;-87
2022/05/13 08:57:39;;;;;;;7.72;6.72;;;;;;;26.18;35.38;99825.25;5050518;28;20021;-87
2022/05/13 09:00:10;;;;;;;13.75;8.65;;;;;;;26.35;34.95;99824.16;5050663;28;20722;-87
2022/05/13 09:02:39;;;;;;;10.05;8.65;;;;;;;26.49;34.88;99812.47;5051082;28;20037;-86
2022/05/13 09:05:04;;;;;;;13.75;12.40;;;;;;;26.69;34.31;99814.28;5050764;28;20108;-86
2022/05/13 09:07:30;;;;;;;7.80;7.00;;;;;;;25.89;33.41;99659.97;5032888;28;20116;-87
2022/05/13 09:10:00;;;;;;;12.70;11.35;;;;;;;26.60;32.69;99740.91;5050854;28;20086;-87
2022/05/13 09:12:48;;;;;;;7.78;5.63;;;;;;;27.19;31.05;99807.84;5050238;28;20025;-86
2022/05/13 09:15:16;;;;;;;6.00;5.38;;;;;;;27.38;31.24;99807.16;5032779;28;20029;-86
2022/05/13 09:18:04;;;;;;;6.32;5.72;;;;;;;27.59;30.83;99808.66;5050677;28;20114;-86
2022/05/13 09:20:37;;;;;;;11.40;9.55;;;;;;;27.81;29.73;99805.50;5050639;28;20025;-86
2022/05/13 09:23:09;;;;;;;16.83;14.52;;;;;;;28.00;29.32;99803.69;5032780;28;20029;-86
2022/05/13 09:26:00;;;;;;;16.10;14.25;;;;;;;28.25;27.78;99797.25;5050611;28;20021;-86
2022/05/13 09:28:27;;;;;;;5.97;5.32;;;;;;;28.42;27.60;99794.06;5050801;28;20151;-86
2022/05/13 09:30:59;;;;;;;4.90;4.20;;;;;;;28.35;26.92;99750.97;5050333;28;20498;-86
2022/05/13 09:33:34;;;;;;;5.07;3.50;;;;;;;28.86;26.16;99785.66;5017170;28;20405;-86
2022/05/13 09:36:09;;;;;;;5.70;4.55;;;;;;;28.46;26.55;99702.75;5042218;28;20079;-86
2022/05/13 09:38:46;;;;;;;7.55;6.68;;;;;;;29.00;26.23;99753.94;5025983;28;20437;-86
2022/05/13 09:41:23;;;;;;;5.45;4.78;;;;;;;29.33;25.89;99765.69;5031044;28;20025;-85
2022/05/13 09:43:55;;;;;;;6.18;5.63;;;;;;;29.54;25.70;99776.25;5037101;28;20056;-85
2022/05/13 09:46:31;;;;;;;8.57;5.00;;;;;;;29.77;24.59;99766.38;5036027;28;20092;-85
2022/05/13 09:49:01;;;;;;;4.55;4.15;;;;;;;29.07;24.60;99623.88;5034698;28;20064;-86
2022/05/13 09:51:38;;;;;;;6.07;4.10;;;;;;;29.02;24.20;99607.66;5034415;28;20030;-85
2022/05/13 09:54:15;;;;;;;8.63;5.63;;;;;;;29.46;23.90;99668.94;5032991;28;20048;-86
2022/05/13 09:56:49;;;;;;;5.22;3.63;;;;;;;30.05;23.09;99751.72;5046721;28;20032;-85
2022/05/13 09:59:25;;;;;;;12.18;10.95;;;;;;;30.16;23.47;99742.22;5035152;28;20044;-85
2022/05/13 10:01:51;;;;;;;4.75;3.33;;;;;;;30.26;23.02;99728.41;5041896;28;20033;-86
2022/05/13 10:04:27;;;;;;;5.18;3.58;;;;;;;30.39;22.95;99717.78;5038411;28;20033;-85
2022/05/13 10:07:14;;;;;;;5.70;5.15;;;;;;;29.97;22.94;99618.97;5051933;28;20039;-86
2022/05/13 10:15:25;;;;;;;4.18;3.50;;;;;;;30.91;22.16;99708.22;5054466;28;20071;-84
2022/05/13 10:17:56;;;;;;;11.43;10.30;;;;;;;30.86;22.00;99673.72;5054066;28;20471;-85
2022/05/13 10:20:34;;;;;;;;;;;;;;;31.12;22.14;99708.56;5054614;28;20031;-85
2022/05/13 10:23:47;;;;;;;12.02;8.32;;;;;;;31.20;21.58;99683.28;5039364;28;19909;-85
2022/05/13 10:26:20;;;;;;;8.07;6.68;;;;;;;31.43;21.58;99714.13;5028888;28;20483;-85
2022/05/13 10:29:13;;;;;;;9.07;7.35;;;;;;;31.56;20.83;99696.84;5062803;28;20032;-85
2022/05/13 10:31:42;;;;;;;20.52;18.52;;;;;;;30.83;21.17;99578.91;5051048;28;20394;-85
2022/05/13 10:34:39;;;;;;;8.38;6.93;;;;;;;31.75;20.24;99694.72;5049485;28;20037;-85
2022/05/13 10:37:39;;;;;;;7.55;5.15;;;;;;;31.97;19.52;99688.41;5032074;28;20033;-85
2022/05/13 10:40:10;;;;;;;5.70;4.72;;;;;;;31.87;18.85;99637.59;5021326;28;20179;-85
2022/05/13 10:42:55;;;;;;;;;;;;;;;32.23;18.68;99683.81;5052197;28;20093;-85
2022/05/13 10:45:25;;;;;;;6.40;3.67;;;;;;;31.99;19.25;99644.38;5042409;28;19943;-85
2022/05/13 10:48:01;;;;;;;5.65;3.22;;;;;;;32.16;19.67;99633.50;5052565;28;20032;-85
2022/05/13 10:50:38;;;;;;;11.57;10.45;;;;;;;32.03;19.71;99580.63;5057605;28;20028;-84
2022/05/13 10:53:21;;;;;;;4.68;3.17;;;;;;;32.80;19.26;99666.59;5071655;28;20109;-85
2022/05/13 10:55:59;;;;;;;4.55;3.65;;;;;;;32.87;19.03;99675.09;5071625;28;20063;-85
2022/05/13 10:58:49;;;;;;;5.25;4.40;;;;;;;32.59;19.17;99614.41;5071727;28;20085;-85
2022/05/13 11:01:32;;;;;;;5.50;3.83;;;;;;;32.73;18.13;99652.56;5070708;28;20055;-85
2022/05/13 11:03:58;;;;;;;5.43;4.90;;;;;;;32.66;18.19;99655.75;5072185;28;20025;-85
2022/05/13 11:07:14;;;;;;;6.03;4.30;;;;;;;32.53;18.65;99635.66;5056935;28;20514;-84
2022/05/13 11:10:17;;;;;;;7.05;4.85;;;;;;;33.01;18.39;99650.31;5062013;28;20047;-85
2022/05/13 11:12:58;;;;;;;4.85;3.00;;;;;;;32.75;18.15;99584.69;5056479;28;20032;-85
2022/05/13 11:15:52;;;;;;;5.88;4.32;;;;;;;32.69;18.10;99534.81;5052476;28;20021;-85
2022/05/13 11:18:35;;;;;;;4.43;3.05;;;;;;;33.55;18.82;99635.06;5051990;28;20568;-85
2022/05/13 11:21:03;;;;;;;5.05;4.00;;;;;;;33.75;18.71;99631.59;5056150;28;20147;-84
2022/05/13 11:23:43;;;;;;;5.57;3.17;;;;;;;34.00;18.59;99629.88;5055035;28;20047;-85
2022/05/13 11:26:32;;;;;;;5.60;3.93;;;;;;;33.86;18.62;99584.69;5066763;28;20025;-83
2022/05/13 11:29:32;;;;;;;5.53;3.00;;;;;;;33.92;18.42;99589.66;5051372;28;20398;-84
2022/05/13 11:32:16;;;;;;;7.47;3.50;;;;;;;33.80;18.94;99562.13;5062078;28;20525;-83
2022/05/13 11:35:16;;;;;;;4.40;3.03;;;;;;;34.09;18.67;99589.53;5070632;28;20020;-85
2022/05/13 11:37:43;;;;;;;5.57;3.08;;;;;;;34.09;19.04;99586.78;5071756;28;20024;-85
2022/05/13 11:40:29;;;;;;;6.40;3.47;;;;;;;34.06;18.70;99605.81;5071935;28;20059;-85
2022/05/13 11:43:29;;;;;;;4.00;2.92;;;;;;;34.01;19.04;99601.34;5069971;28;20054;-85
2022/05/13 11:46:01;;;;;;;6.50;2.92;;;;;;;34.00;18.45;99597.00;5061099;28;20036;-85
2022/05/13 11:48:34;;;;;;;6.63;4.65;;;;;;;33.96;18.96;99596.06;5061942;28;20047;-84
2022/05/13 11:51:21;;;;;;;6.78;3.80;;;;;;;34.18;18.28;99603.16;5053734;28;20032;-84
2022/05/13 11:54:12;;;;;;;5.63;3.13;;;;;;;34.17;18.68;99579.63;5041848;28;20564;-84
2022/05/13 11:56:39;;;;;;;3.80;3.47;;;;;;;33.46;18.54;99484.56;5031919;28;20120;-84
2022/05/13 11:59:10;;;;;;;4.13;2.78;;;;;;;33.82;18.57;99561.84;5079080;28;20039;-84
2022/05/13 12:01:36;;;;;;;2.88;2.35;;;;;;;34.03;18.23;99579.91;5071727;28;20055;-83
2022/05/13 12:04:14;;;;;;;3.95;3.50;;;;;;;34.05;18.24;99577.63;5070877;28;20021;-84
2022/05/13 12:07:24;;;;;;;4.93;4.03;;;;;;;33.65;18.15;99538.88;5061972;28;20024;-84
2022/05/13 12:09:53;;;;;;;5.25;4.35;;;;;;;33.00;18.38;99454.47;5042690;28;20036;-84
2022/05/13 12:12:52;;;;;;;4.95;3.50;;;;;;;34.06;18.44;99573.75;5038006;28;20390;-84
2022/05/13 12:15:32;;;;;;;3.45;2.78;;;;;;;34.26;17.88;99565.91;5026827;28;20043;-84